Time;durP1;ratioP1;P1;durP2;ratioP2;P2;SDS_P1;SDS_P2;PMS_P1;PMS_P2;Temp;Humidity;BMP_temperature;BMP_pressure;BME280_temperature;BME280_humidity;BME280_pressure;Samples;Min_cycle;Max_cycle;Signal;HPM_P1;HPM_P2
2021/09/09 00:01:36;;;;;;;10.40;8.80;;;15.00;99.90;;;;;;5011470;28;20278;-58
2021/09/09 00:04:02;;;;;;;19.20;10.53;;;15.00;99.90;;;;;;5016414;28;20722;-60
2021/09/09 00:06:28;;;;;;;11.10;9.10;;;14.90;99.90;;;;;;5008207;28;20204;-59
2021/09/09 00:08:53;;;;;;;13.17;9.47;;;14.90;99.90;;;;;;5013696;28;20235;-59
2021/09/09 00:11:19;;;;;;;11.30;9.53;;;14.90;99.90;;;;;;5014805;28;20192;-59
2021/09/09 00:13:45;;;;;;;11.97;8.73;;;14.90;99.90;;;;;;5006054;28;20211;-59
2021/09/09 00:16:11;;;;;;;14.60;9.17;;;14.80;99.90;;;;;;5006504;28;20177;-60
2021/09/09 00:18:37;;;;;;;13.63;9.53;;;14.80;99.90;;;;;;5018813;28;20445;-60
2021/09/09 00:21:04;;;;;;;15.43;9.67;;;14.70;99.90;;;;;;5007118;28;20196;-60
2021/09/09 00:23:30;;;;;;;16.67;10.20;;;14.70;99.90;;;;;;5012703;28;20973;-60
2021/09/09 00:25:56;;;;;;;13.97;8.90;;;14.70;99.90;;;;;;5012142;28;21001;-60
2021/09/09 00:28:21;;;;;;;13.00;9.60;;;14.60;99.90;;;;;;5013312;28;20472;-60
2021/09/09 00:30:47;;;;;;;11.77;9.67;;;14.60;99.90;;;;;;5008323;28;20177;-61
2021/09/09 00:33:12;;;;;;;16.03;9.60;;;14.50;99.90;;;;;;5015190;28;20208;-60
2021/09/09 00:35:39;;;;;;;13.20;9.43;;;14.50;99.90;;;;;;5009157;28;20181;-60
2021/09/09 00:38:05;;;;;;;13.47;9.13;;;14.50;99.90;;;;;;5010598;28;20242;-60
2021/09/09 00:40:32;;;;;;;17.43;8.80;;;14.50;99.90;;;;;;4995279;28;20898;-60
2021/09/09 00:42:58;;;;;;;11.97;8.80;;;14.40;99.90;;;;;;4989964;28;20489;-59
2021/09/09 00:45:24;;;;;;;13.53;9.03;;;14.40;99.90;;;;;;5003979;28;20427;-60
2021/09/09 00:47:50;;;;;;;15.33;10.50;;;14.40;99.90;;;;;;5010387;28;20470;-59
2021/09/09 00:50:15;;;;;;;13.73;9.47;;;14.40;99.90;;;;;;5011559;28;20173;-59
2021/09/09 00:52:46;;;;;;;13.60;9.60;;;14.40;99.90;;;;;;5012082;28;20348;-60
2021/09/09 00:55:12;;;;;;;10.27;9.17;;;14.30;99.90;;;;;;5009416;28;20168;-59
2021/09/09 00:57:38;;;;;;;15.60;10.47;;;14.30;99.90;;;;;;4999352;28;21135;-59
2021/09/09 01:00:05;;;;;;;13.40;9.40;;;14.30;99.90;;;;;;5015529;28;20434;-59
2021/09/09 01:02:31;;;;;;;15.00;9.43;;;14.30;99.90;;;;;;4989578;28;20705;-59
2021/09/09 01:04:56;;;;;;;12.83;8.97;;;14.30;99.90;;;;;;5025002;28;20474;-59
2021/09/09 01:07:24;;;;;;;15.83;9.40;;;14.30;99.90;;;;;;5015913;28;20690;-59
2021/09/09 01:09:50;;;;;;;14.50;9.50;;;14.20;99.90;;;;;;5007749;28;20613;-60
2021/09/09 01:12:16;;;;;;;14.80;9.80;;;14.20;99.90;;;;;;5014534;28;20978;-59
2021/09/09 01:14:41;;;;;;;17.23;10.37;;;14.20;99.90;;;;;;5023195;28;20491;-59
2021/09/09 01:17:07;;;;;;;13.90;10.50;;;14.20;99.90;;;;;;5011263;28;20234;-59
2021/09/09 01:19:33;;;;;;;11.67;9.07;;;14.20;99.90;;;;;;5010834;28;20260;-58
2021/09/09 01:21:59;;;;;;;12.57;9.63;;;14.10;99.90;;;;;;5023303;28;20673;-59
2021/09/09 01:24:24;;;;;;;16.50;9.83;;;14.10;99.90;;;;;;5021568;28;20203;-59
2021/09/09 01:26:50;;;;;;;11.20;9.50;;;14.10;99.90;;;;;;5013387;28;20236;-59
2021/09/09 01:29:16;;;;;;;11.87;9.13;;;14.10;99.90;;;;;;5011718;28;20251;-59
2021/09/09 01:31:42;;;;;;;12.47;9.50;;;14.10;99.90;;;;;;5011689;28;20664;-60
2021/09/09 01:34:08;;;;;;;14.83;10.20;;;14.00;99.90;;;;;;5009647;28;20474;-60
2021/09/09 01:36:34;;;;;;;13.70;10.10;;;14.00;99.90;;;;;;5005997;28;20470;-59
2021/09/09 01:38:59;;;;;;;13.60;9.43;;;14.00;99.90;;;;;;5012635;28;20849;-59
2021/09/09 01:41:25;;;;;;;13.40;9.07;;;14.00;99.90;;;;;;5010229;28;20722;-59
2021/09/09 01:43:50;;;;;;;16.63;9.13;;;14.00;99.90;;;;;;5026279;28;20200;-59
2021/09/09 01:46:16;;;;;;;14.17;9.40;;;14.00;99.90;;;;;;5008358;28;20291;-60
2021/09/09 01:48:42;;;;;;;15.07;9.70;;;13.90;99.90;;;;;;5017414;28;20171;-59
2021/09/09 01:51:07;;;;;;;13.90;9.30;;;13.90;99.90;;;;;;4992668;28;20226;-59
2021/09/09 01:53:38;;;;;;;12.50;9.10;;;13.90;99.90;;;;;;5004939;28;20219;-59
2021/09/09 01:56:04;;;;;;;17.03;10.13;;;13.90;99.90;;;;;;5012093;28;20728;-61
2021/09/09 01:58:29;;;;;;;12.33;9.03;;;13.80;99.90;;;;;;4998132;28;20465;-60
2021/09/09 02:00:57;;;;;;;14.73;9.60;;;13.80;99.90;;;;;;5020011;28;20769;-60
2021/09/09 02:03:25;;;;;;;16.03;10.67;;;13.80;99.90;;;;;;5008663;28;20203;-61
2021/09/09 02:05:51;;;;;;;14.77;10.37;;;13.80;99.90;;;;;;5013402;28;20467;-60
2021/09/09 02:08:17;;;;;;;14.13;10.23;;;13.80;99.90;;;;;;5010838;28;20520;-59
2021/09/09 02:10:42;;;;;;;11.33;9.77;;;13.80;99.90;;;;;;4999063;28;20430;-58
2021/09/09 02:13:08;;;;;;;17.60;9.97;;;13.80;99.90;;;;;;5018911;28;20200;-60
2021/09/09 02:15:33;;;;;;;14.33;10.10;;;13.80;99.90;;;;;;5006170;28;20215;-60
2021/09/09 02:17:59;;;;;;;15.00;9.20;;;13.70;99.90;;;;;;5017143;28;20589;-59
2021/09/09 02:20:25;;;;;;;14.23;10.50;;;13.70;99.90;;;;;;5010625;28;20182;-60
2021/09/09 02:22:51;;;;;;;20.90;10.57;;;13.70;99.90;;;;;;5015619;28;20323;-60
2021/09/09 02:25:16;;;;;;;13.10;9.43;;;13.70;99.90;;;;;;5012007;28;20164;-60
2021/09/09 02:27:42;;;;;;;17.33;9.80;;;13.70;99.90;;;;;;5005199;28;20708;-60
2021/09/09 02:30:08;;;;;;;18.03;10.40;;;13.70;99.90;;;;;;5010634;28;20214;-61
2021/09/09 02:32:34;;;;;;;13.33;9.73;;;13.70;99.90;;;;;;5018154;28;20242;-60
2021/09/09 02:35:00;;;;;;;14.20;10.23;;;13.60;99.90;;;;;;5010714;28;20462;-57
2021/09/09 02:37:25;;;;;;;17.03;9.80;;;13.60;99.90;;;;;;5005568;28;20585;-60
2021/09/09 02:39:51;;;;;;;15.33;10.20;;;13.60;99.90;;;;;;5023596;28;20644;-61
2021/09/09 02:42:16;;;;;;;12.80;9.43;;;13.50;99.90;;;;;;5019638;28;20526;-60
2021/09/09 02:44:42;;;;;;;19.90;10.10;;;13.50;99.90;;;;;;5014833;28;20176;-60
2021/09/09 02:47:08;;;;;;;20.03;10.20;;;13.50;99.90;;;;;;5011367;28;20204;-60
2021/09/09 02:49:34;;;;;;;16.10;10.70;;;13.50;99.90;;;;;;5013530;28;20172;-60
2021/09/09 02:52:00;;;;;;;13.43;9.60;;;13.50;99.90;;;;;;5007291;28;20927;-60
2021/09/09 02:54:25;;;;;;;13.13;9.73;;;13.50;99.90;;;;;;5009140;28;20770;-60
2021/09/09 02:56:51;;;;;;;16.10;10.70;;;13.40;99.90;;;;;;5017262;28;20573;-60
2021/09/09 02:59:17;;;;;;;18.03;10.63;;;13.40;99.90;;;;;;5004455;28;20811;-60
2021/09/09 03:01:43;;;;;;;15.20;10.20;;;13.40;99.90;;;;;;5010814;28;20562;-60
2021/09/09 03:04:08;;;;;;;11.97;9.33;;;13.40;99.90;;;;;;5009550;28;20447;-60
2021/09/09 03:06:34;;;;;;;16.37;9.93;;;13.40;99.90;;;;;;5011701;28;20200;-60
2021/09/09 03:09:00;;;;;;;13.00;9.60;;;13.40;99.90;;;;;;5010281;28;20242;-60
2021/09/09 03:11:25;;;;;;;18.23;9.97;;;13.50;99.90;;;;;;4993138;28;20645;-60
2021/09/09 03:13:51;;;;;;;10.90;8.93;;;13.50;99.90;;;;;;5007348;28;20269;-60
2021/09/09 03:16:17;;;;;;;16.50;10.07;;;13.50;99.90;;;;;;5007006;28;20646;-59
2021/09/09 03:18:43;;;;;;;12.77;9.60;;;13.50;99.90;;;;;;5010469;28;20177;-60
2021/09/09 03:21:09;;;;;;;13.60;9.90;;;13.50;99.90;;;;;;5009113;28;20704;-60
2021/09/09 03:23:34;;;;;;;16.30;9.90;;;13.50;99.90;;;;;;5009019;28;20531;-60
2021/09/09 03:26:00;;;;;;;21.53;11.30;;;13.40;99.90;;;;;;5008390;28;20252;-60
2021/09/09 03:28:26;;;;;;;13.37;9.10;;;13.40;99.90;;;;;;5010856;28;20665;-60
2021/09/09 03:30:53;;;;;;;14.73;10.87;;;13.40;99.90;;;;;;5009109;28;20790;-60
2021/09/09 03:33:19;;;;;;;12.30;9.93;;;13.40;99.90;;;;;;5114152;22;20229;-58
2021/09/09 03:35:45;;;;;;;14.60;10.60;;;13.40;99.90;;;;;;4989350;28;21067;-58
2021/09/09 03:38:10;;;;;;;17.13;11.07;;;13.40;99.90;;;;;;5006076;28;20578;-57
2021/09/09 03:40:37;;;;;;;11.27;9.40;;;13.40;99.90;;;;;;5000937;28;20188;-57
2021/09/09 03:43:03;;;;;;;12.73;9.30;;;13.40;99.90;;;;;;5003463;28;20193;-57
2021/09/09 03:45:29;;;;;;;13.03;9.70;;;13.30;99.90;;;;;;4997477;28;20459;-57
2021/09/09 03:47:54;;;;;;;14.00;9.73;;;13.30;99.90;;;;;;4997639;28;20494;-57
2021/09/09 03:50:20;;;;;;;12.60;9.60;;;13.30;99.90;;;;;;4995378;28;20181;-59
2021/09/09 03:52:46;;;;;;;16.13;10.20;;;13.30;99.90;;;;;;4997431;28;20177;-58
2021/09/09 03:55:11;;;;;;;15.50;10.03;;;13.30;99.90;;;;;;4998324;28;20211;-57
2021/09/09 03:57:38;;;;;;;17.80;10.40;;;13.20;99.90;;;;;;4996259;28;20172;-58
2021/09/09 04:00:05;;;;;;;15.17;10.10;;;13.20;99.90;;;;;;4995108;28;20649;-59
2021/09/09 04:02:33;;;;;;;14.63;10.87;;;13.20;99.90;;;;;;4987003;28;20441;-59
2021/09/09 04:04:58;;;;;;;12.73;10.13;;;13.20;99.90;;;;;;4983352;28;20460;-58
2021/09/09 04:07:24;;;;;;;14.90;9.80;;;13.20;99.90;;;;;;4986637;28;20479;-59
2021/09/09 04:09:50;;;;;;;17.17;9.90;;;13.20;99.90;;;;;;4989331;28;20180;-58
2021/09/09 04:12:16;;;;;;;13.70;8.80;;;13.10;99.90;;;;;;4988834;28;20247;-58
2021/09/09 04:14:41;;;;;;;15.67;9.87;;;13.10;99.90;;;;;;4989929;28;20262;-58
2021/09/09 04:17:07;;;;;;;12.87;9.60;;;13.10;99.90;;;;;;4980839;28;20276;-56
2021/09/09 04:19:33;;;;;;;12.73;9.13;;;13.10;99.90;;;;;;4987084;28;20204;-57
2021/09/09 04:22:01;;;;;;;18.73;10.20;;;13.10;99.90;;;;;;4989766;28;21743;-56
2021/09/09 04:24:27;;;;;;;16.07;10.33;;;13.10;99.90;;;;;;4989184;28;20205;-58
2021/09/09 04:26:53;;;;;;;16.70;10.83;;;13.10;99.90;;;;;;4986589;28;20468;-59
2021/09/09 04:29:19;;;;;;;13.87;9.40;;;13.10;99.90;;;;;;5003150;28;20447;-62
2021/09/09 04:31:44;;;;;;;15.03;10.07;;;13.00;99.90;;;;;;4999211;28;20208;-57
2021/09/09 04:34:10;;;;;;;11.73;9.30;;;13.00;99.90;;;;;;4986641;28;20220;-59
2021/09/09 04:36:36;;;;;;;13.93;10.03;;;13.00;99.90;;;;;;4985240;28;20186;-58
2021/09/09 04:39:02;;;;;;;15.83;9.70;;;13.00;99.90;;;;;;4984645;28;21867;-60
2021/09/09 04:41:28;;;;;;;18.20;9.50;;;13.00;99.90;;;;;;4976900;28;20213;-58
2021/09/09 04:43:54;;;;;;;13.63;10.30;;;13.00;99.90;;;;;;4984910;28;20503;-55
2021/09/09 04:46:19;;;;;;;15.27;9.37;;;13.00;99.90;;;;;;4995893;28;20209;-57
2021/09/09 04:48:45;;;;;;;16.33;9.40;;;13.00;99.90;;;;;;4980821;28;20189;-57
2021/09/09 04:51:11;;;;;;;13.87;9.90;;;13.00;99.90;;;;;;4981532;28;20185;-59
2021/09/09 04:53:37;;;;;;;13.27;9.83;;;13.00;99.90;;;;;;4984566;28;20271;-59
2021/09/09 04:56:03;;;;;;;24.37;9.80;;;13.00;99.90;;;;;;4989552;28;20213;-58
2021/09/09 04:58:28;;;;;;;15.70;10.70;;;13.00;99.90;;;;;;4990220;28;20189;-58
2021/09/09 05:00:55;;;;;;;16.30;11.03;;;13.00;99.90;;;;;;4988542;28;20220;-58
2021/09/09 05:03:20;;;;;;;16.50;10.00;;;13.00;99.90;;;;;;4990604;28;20209;-57
2021/09/09 05:05:46;;;;;;;13.37;10.17;;;13.10;99.90;;;;;;4986770;28;20557;-59
2021/09/09 05:08:12;;;;;;;17.93;10.50;;;13.10;99.90;;;;;;4989289;28;20263;-58
2021/09/09 05:10:38;;;;;;;16.10;10.30;;;13.10;99.90;;;;;;4988420;28;20203;-58
2021/09/09 05:13:04;;;;;;;13.53;9.47;;;13.10;99.90;;;;;;4988434;28;20455;-59
2021/09/09 05:15:29;;;;;;;16.57;10.03;;;13.20;99.90;;;;;;4988140;28;20441;-59
2021/09/09 05:17:55;;;;;;;15.13;9.93;;;13.20;99.90;;;;;;4999356;28;20280;-58
2021/09/09 05:20:21;;;;;;;15.23;10.30;;;13.20;99.90;;;;;;4984729;28;20189;-57
2021/09/09 05:22:47;;;;;;;14.60;11.30;;;13.20;99.90;;;;;;4987826;28;20192;-60
2021/09/09 05:25:13;;;;;;;20.63;10.90;;;13.20;99.90;;;;;;4986729;28;20576;-57
2021/09/09 05:27:39;;;;;;;18.13;10.63;;;13.20;99.90;;;;;;4990035;28;20472;-58
2021/09/09 05:30:05;;;;;;;16.30;9.90;;;13.30;99.90;;;;;;4987377;28;20190;-58
2021/09/09 05:32:33;;;;;;;16.00;10.23;;;13.30;99.90;;;;;;4998608;28;20185;-59
2021/09/09 05:34:59;;;;;;;16.73;10.27;;;13.30;99.90;;;;;;4988783;28;20483;-57
2021/09/09 05:37:25;;;;;;;16.33;10.90;;;13.30;99.90;;;;;;4985978;28;20440;-59
2021/09/09 05:39:50;;;;;;;15.80;10.33;;;13.30;99.90;;;;;;4989415;28;20291;-60
2021/09/09 05:42:16;;;;;;;22.03;10.47;;;13.30;99.90;;;;;;4989950;28;20570;-57
2021/09/09 05:44:42;;;;;;;15.77;11.10;;;13.30;99.90;;;;;;4988725;28;20306;-58
2021/09/09 05:47:08;;;;;;;14.53;9.70;;;13.30;99.90;;;;;;4990469;28;20612;-57
2021/09/09 05:49:34;;;;;;;14.80;10.80;;;13.40;99.90;;;;;;4988270;28;21199;-59
2021/09/09 05:52:00;;;;;;;18.23;11.13;;;13.40;99.90;;;;;;4988828;28;20526;-58
2021/09/09 05:54:25;;;;;;;13.77;10.53;;;13.40;99.90;;;;;;4987785;28;20558;-59
2021/09/09 05:56:51;;;;;;;16.03;11.27;;;13.40;99.90;;;;;;4992484;28;21429;-59
2021/09/09 05:59:18;;;;;;;14.33;10.20;;;13.40;99.90;;;;;;4987411;28;20197;-59
2021/09/09 06:01:45;;;;;;;17.33;10.87;;;13.50;99.90;;;;;;4988161;28;20189;-59
2021/09/09 06:04:11;;;;;;;17.70;10.33;;;13.60;99.90;;;;;;4988760;28;21011;-58
2021/09/09 06:06:37;;;;;;;17.90;10.33;;;13.70;99.90;;;;;;4989595;28;20464;-59
2021/09/09 06:09:03;;;;;;;15.83;10.80;;;13.70;99.90;;;;;;5000993;28;20440;-60
2021/09/09 06:11:29;;;;;;;17.03;10.60;;;13.80;99.90;;;;;;4990786;28;20643;-58
2021/09/09 06:13:55;;;;;;;14.30;10.40;;;13.90;99.90;;;;;;4988919;28;20463;-59
2021/09/09 06:16:20;;;;;;;14.13;10.77;;;14.00;99.90;;;;;;4990525;28;20284;-58
2021/09/09 06:18:46;;;;;;;23.40;13.77;;;14.10;99.90;;;;;;4989848;28;20197;-58
2021/09/09 06:21:12;;;;;;;29.10;13.60;;;14.20;99.90;;;;;;5001923;28;20200;-59
2021/09/09 06:23:37;;;;;;;31.30;14.67;;;14.30;99.90;;;;;;4990422;28;20208;-59
2021/09/09 06:26:03;;;;;;;23.90;12.90;;;14.30;99.90;;;;;;4996071;28;20207;-59
2021/09/09 06:28:29;;;;;;;25.33;13.57;;;14.40;99.90;;;;;;5001764;28;20185;-59
2021/09/09 06:30:54;;;;;;;25.27;14.70;;;14.40;99.90;;;;;;5003685;28;20174;-60
2021/09/09 06:33:20;;;;;;;35.60;14.37;;;14.40;99.90;;;;;;4995755;28;20216;-59
2021/09/09 06:35:46;;;;;;;30.60;13.93;;;14.50;99.90;;;;;;4999842;28;20247;-59
2021/09/09 06:38:12;;;;;;;19.80;13.00;;;14.50;99.90;;;;;;4996478;28;20189;-57
2021/09/09 06:40:38;;;;;;;28.03;14.80;;;14.60;99.90;;;;;;4998886;28;20964;-59
2021/09/09 06:43:04;;;;;;;20.73;13.03;;;14.70;99.90;;;;;;4997289;28;21090;-58
2021/09/09 06:45:30;;;;;;;25.83;13.90;;;14.80;99.90;;;;;;4998319;28;20443;-57
2021/09/09 06:47:55;;;;;;;23.47;13.83;;;14.90;99.90;;;;;;4999187;28;20217;-57
2021/09/09 06:50:21;;;;;;;22.67;12.90;;;15.10;99.90;;;;;;4998471;28;20190;-58
2021/09/09 06:52:47;;;;;;;20.50;13.33;;;15.20;99.90;;;;;;5004911;28;20181;-60
2021/09/09 06:55:13;;;;;;;25.77;12.67;;;15.30;99.90;;;;;;5015173;28;20229;-61
2021/09/09 06:57:38;;;;;;;26.27;12.77;;;15.40;99.90;;;;;;5014498;28;20189;-61
2021/09/09 07:00:05;;;;;;;26.53;11.63;;;15.40;99.90;;;;;;5014402;28;20241;-65
2021/09/09 07:02:30;;;;;;;20.40;11.13;;;15.50;99.90;;;;;;5004190;28;20646;-57
2021/09/09 07:04:56;;;;;;;22.07;11.73;;;15.50;99.90;;;;;;4991370;28;20463;-59
2021/09/09 07:07:22;;;;;;;21.00;12.50;;;15.50;99.90;;;;;;4995576;28;20212;-63
2021/09/09 07:09:47;;;;;;;21.57;13.57;;;15.60;99.90;;;;;;4992217;28;20280;-58
2021/09/09 07:12:13;;;;;;;20.37;12.27;;;15.60;99.90;;;;;;5003452;28;20761;-58
2021/09/09 07:14:39;;;;;;;25.90;14.13;;;15.70;99.90;;;;;;4993462;28;20212;-59
2021/09/09 07:17:04;;;;;;;21.67;12.07;;;15.80;99.90;;;;;;4994335;28;20196;-59
2021/09/09 07:19:30;;;;;;;27.67;11.53;;;15.90;99.90;;;;;;4991700;28;20265;-58
2021/09/09 07:21:56;;;;;;;24.60;12.20;;;16.00;99.90;;;;;;4991376;28;20189;-58
2021/09/09 07:24:21;;;;;;;26.20;12.03;;;16.10;99.90;;;;;;4989054;28;20220;-60
2021/09/09 07:26:48;;;;;;;34.10;13.07;;;16.20;99.90;;;;;;4991940;28;20289;-59
2021/09/09 07:29:14;;;;;;;21.00;12.17;;;16.30;99.90;;;;;;4989558;28;20177;-58
2021/09/09 07:31:44;;;;;;;26.47;12.50;;;16.40;99.90;;;;;;4989425;28;20447;-59
2021/09/09 07:34:11;;;;;;;23.70;11.80;;;16.50;99.90;;;;;;4988250;28;20479;-58
2021/09/09 07:36:37;;;;;;;23.70;11.70;;;16.60;99.90;;;;;;4990063;28;20437;-60
2021/09/09 07:39:04;;;;;;;23.63;11.33;;;16.70;99.90;;;;;;4989213;28;20444;-57
2021/09/09 07:41:30;;;;;;;20.90;11.83;;;16.80;99.90;;;;;;5004958;28;20532;-58
2021/09/09 07:43:56;;;;;;;21.43;12.80;;;16.90;99.90;;;;;;4989620;28;20692;-59
2021/09/09 07:46:22;;;;;;;33.47;13.67;;;16.90;99.90;;;;;;4990394;28;21439;-60
2021/09/09 07:48:48;;;;;;;25.77;13.73;;;17.00;99.90;;;;;;4988057;28;20528;-60
2021/09/09 07:51:16;;;;;;;25.27;14.33;;;17.10;99.90;;;;;;4986843;28;20177;-58
2021/09/09 07:53:41;;;;;;;26.40;13.60;;;17.10;99.90;;;;;;4991047;28;20913;-58
2021/09/09 07:56:07;;;;;;;26.03;12.90;;;17.30;99.90;;;;;;4990049;28;20511;-60
2021/09/09 07:58:32;;;;;;;39.17;12.93;;;17.40;99.90;;;;;;4986727;28;20523;-59
2021/09/09 08:00:58;;;;;;;15.43;11.07;;;17.50;99.90;;;;;;4986899;28;20811;-58
2021/09/09 08:03:24;;;;;;;22.47;12.90;;;17.60;99.90;;;;;;4986095;28;20212;-58
2021/09/09 08:05:49;;;;;;;25.53;11.07;;;17.70;99.90;;;;;;5005390;28;20666;-57
2021/09/09 08:08:15;;;;;;;21.37;11.83;;;17.80;99.90;;;;;;4989299;28;20181;-58
2021/09/09 08:10:41;;;;;;;21.20;12.20;;;18.00;99.90;;;;;;4990771;28;20177;-58
2021/09/09 08:13:06;;;;;;;15.30;11.10;;;18.10;99.90;;;;;;4988397;28;20201;-59
2021/09/09 08:15:32;;;;;;;21.53;10.70;;;18.20;99.90;;;;;;4987499;28;20181;-57
2021/09/09 08:17:58;;;;;;;14.70;9.90;;;18.20;99.90;;;;;;4989234;28;20312;-58
2021/09/09 08:20:23;;;;;;;12.93;9.73;;;18.30;99.90;;;;;;4985076;28;20246;-59
2021/09/09 08:22:49;;;;;;;16.70;11.40;;;18.40;99.90;;;;;;4987006;28;20184;-60
2021/09/09 08:25:15;;;;;;;13.53;9.90;;;18.50;99.90;;;;;;4983064;28;20219;-57
2021/09/09 08:27:41;;;;;;;18.20;11.10;;;18.50;99.90;;;;;;4988947;28;20208;-59
2021/09/09 08:30:07;;;;;;;13.40;10.37;;;18.50;99.90;;;;;;4987719;28;20193;-59
2021/09/09 08:32:33;;;;;;;13.10;9.80;;;18.50;99.90;;;;;;4985326;28;20182;-57
2021/09/09 08:34:59;;;;;;;13.00;10.70;;;18.50;99.90;;;;;;4991120;28;20459;-58
2021/09/09 08:37:26;;;;;;;13.77;10.27;;;18.50;99.90;;;;;;4982710;28;20947;-58
2021/09/09 08:39:52;;;;;;;15.93;10.73;;;18.50;99.90;;;;;;4988592;28;20192;-60
2021/09/09 08:42:19;;;;;;;13.27;10.53;;;18.60;99.90;;;;;;4988182;28;21103;-58
2021/09/09 08:44:45;;;;;;;12.70;9.50;;;18.60;99.90;;;;;;4987699;28;20482;-60
2021/09/09 08:47:11;;;;;;;17.90;10.60;;;18.60;99.90;;;;;;4987885;28;20478;-59
2021/09/09 08:49:37;;;;;;;12.37;9.83;;;18.60;99.90;;;;;;4988366;28;20440;-60
2021/09/09 08:52:04;;;;;;;19.07;10.27;;;18.70;99.90;;;;;;4986445;28;20464;-58
2021/09/09 08:54:31;;;;;;;14.33;10.70;;;18.70;99.90;;;;;;4986674;28;20208;-57
2021/09/09 08:56:57;;;;;;;19.23;10.30;;;18.70;99.90;;;;;;4987796;28;20437;-59
2021/09/09 08:59:23;;;;;;;16.20;10.73;;;18.80;99.90;;;;;;4989173;28;20454;-60
2021/09/09 09:02:05;;;;;;;13.23;10.00;;;18.80;99.90;;;;;;4988609;28;20642;-57
2021/09/09 09:07:57;;;;;;;10.30;8.20;;;18.90;99.90;;;;;;4990266;28;20455;-57
2021/09/09 09:10:22;;;;;;;12.87;9.83;;;18.90;99.90;;;;;;4985342;28;21022;-57
2021/09/09 09:12:48;;;;;;;11.93;9.20;;;18.90;99.90;;;;;;4989447;28;20433;-57
2021/09/09 09:15:18;;;;;;;11.73;8.77;;;18.90;99.90;;;;;;4988333;28;20173;-58
2021/09/09 09:17:58;;;;;;;9.73;8.40;;;19.00;99.90;;;;;;4986167;28;20554;-58
2021/09/09 09:20:25;;;;;;;14.77;8.93;;;19.00;99.90;;;;;;4987710;28;20522;-59
2021/09/09 09:22:53;;;;;;;14.47;8.80;;;19.00;99.90;;;;;;4984467;28;20972;-58
2021/09/09 09:25:19;;;;;;;11.97;8.70;;;19.10;99.90;;;;;;4985050;28;20528;-56
2021/09/09 09:27:46;;;;;;;11.70;8.20;;;19.10;99.70;;;;;;4986820;28;20456;-58
2021/09/09 09:30:13;;;;;;;11.40;8.50;;;19.10;99.50;;;;;;5001757;28;20272;-59
2021/09/09 09:32:47;;;;;;;12.40;8.97;;;19.20;99.60;;;;;;4987751;28;20432;-59
2021/09/09 09:35:19;;;;;;;12.10;8.87;;;19.10;99.10;;;;;;4988831;28;20432;-58
2021/09/09 09:38:02;;;;;;;11.90;8.70;;;19.20;99.40;;;;;;4988557;28;20475;-57
2021/09/09 09:40:42;;;;;;;14.40;9.37;;;19.20;99.40;;;;;;4986905;28;20530;-56
2021/09/09 09:43:10;;;;;;;9.73;7.97;;;19.30;98.90;;;;;;4984968;28;20964;-57
2021/09/09 09:45:46;;;;;;;11.17;8.83;;;19.30;98.70;;;;;;4984650;28;20467;-58
2021/09/09 09:48:28;;;;;;;10.00;8.60;;;19.30;97.50;;;;;;4985541;28;20551;-57
2021/09/09 09:50:54;;;;;;;10.47;8.37;;;19.30;97.60;;;;;;4985820;28;20428;-57
2021/09/09 09:53:21;;;;;;;10.67;8.63;;;19.30;98.00;;;;;;5000449;28;20453;-57
2021/09/09 09:55:50;;;;;;;9.37;8.33;;;19.30;97.40;;;;;;4986541;28;20181;-57
2021/09/09 09:58:16;;;;;;;13.20;8.90;;;19.30;97.50;;;;;;4987294;28;20429;-57
2021/09/09 10:00:43;;;;;;;11.90;8.63;;;19.40;97.20;;;;;;4987699;28;20447;-58
2021/09/09 10:03:08;;;;;;;10.90;8.50;;;19.50;97.50;;;;;;4985685;28;20451;-58
2021/09/09 10:05:40;;;;;;;13.00;9.00;;;19.50;97.20;;;;;;4974038;28;20514;-57
2021/09/09 10:08:08;;;;;;;10.50;8.90;;;19.50;96.00;;;;;;4981799;28;20728;-59
2021/09/09 10:10:34;;;;;;;9.90;8.47;;;19.60;96.40;;;;;;4986541;28;20524;-58
2021/09/09 10:13:00;;;;;;;13.17;8.93;;;19.70;94.60;;;;;;4984944;28;21205;-59
2021/09/09 10:15:27;;;;;;;12.50;8.53;;;19.70;94.50;;;;;;4983553;28;20448;-59
2021/09/09 10:17:54;;;;;;;11.67;8.73;;;19.80;94.80;;;;;;4985211;28;20432;-60
2021/09/09 10:20:33;;;;;;;10.37;8.67;;;19.90;95.40;;;;;;4987093;28;20435;-58
2021/09/09 10:23:06;;;;;;;12.13;8.63;;;20.00;94.80;;;;;;4985081;28;20439;-60
2021/09/09 10:25:40;;;;;;;12.13;9.00;;;20.20;93.70;;;;;;4985327;28;20538;-57
2021/09/09 10:28:34;;;;;;;13.27;8.90;;;20.20;92.50;;;;;;4998302;28;20455;-57
2021/09/09 10:31:18;;;;;;;8.80;7.73;;;20.30;91.60;;;;;;4984095;28;20424;-58
2021/09/09 10:33:49;;;;;;;12.10;8.17;;;20.30;91.60;;;;;;4990349;28;20505;-60
2021/09/09 10:36:41;;;;;;;14.40;9.27;;;20.40;91.90;;;;;;4988787;28;20444;-58
2021/09/09 10:39:09;;;;;;;10.70;8.03;;;20.40;90.20;;;;;;4986432;28;20531;-58
2021/09/09 10:41:35;;;;;;;12.03;8.63;;;20.40;90.00;;;;;;4982845;28;20447;-59
2021/09/09 10:44:04;;;;;;;13.50;7.37;;;20.40;87.10;;;;;;4984651;28;20462;-58
2021/09/09 10:46:33;;;;;;;14.33;8.57;;;20.40;88.10;;;;;;4979045;28;21045;-59
2021/09/09 10:49:07;;;;;;;8.37;7.33;;;20.50;89.00;;;;;;4984743;28;20865;-59
2021/09/09 10:51:33;;;;;;;14.73;7.60;;;20.50;90.10;;;;;;4982347;28;20443;-58
2021/09/09 10:54:00;;;;;;;10.60;7.77;;;20.50;89.70;;;;;;4983436;28;20458;-57
2021/09/09 10:56:26;;;;;;;9.30;7.97;;;20.60;89.70;;;;;;4981566;28;20344;-59
2021/09/09 10:59:14;;;;;;;9.20;7.60;;;20.60;88.10;;;;;;4982690;28;21046;-60
2021/09/09 11:01:45;;;;;;;11.10;8.10;;;20.60;86.10;;;;;;4977292;28;20436;-59
2021/09/09 11:04:34;;;;;;;9.93;7.87;;;20.70;85.00;;;;;;4984019;28;20452;-61
2021/09/09 11:07:00;;;;;;;12.20;8.10;;;20.70;84.00;;;;;;4978633;28;20459;-56
2021/09/09 11:09:27;;;;;;;12.30;8.00;;;20.80;82.50;;;;;;4986422;28;20813;-57
2021/09/09 11:11:58;;;;;;;11.50;8.73;;;20.90;83.80;;;;;;4985903;28;20525;-57
2021/09/09 11:14:26;;;;;;;14.90;8.77;;;20.90;82.50;;;;;;4991143;28;20447;-56
2021/09/09 11:16:52;;;;;;;12.10;8.03;;;21.00;82.60;;;;;;4985637;28;20952;-57
2021/09/09 11:19:22;;;;;;;10.83;8.87;;;21.10;84.50;;;;;;4991181;28;20435;-55
2021/09/09 11:21:49;;;;;;;13.03;8.20;;;21.30;81.30;;;;;;4989031;28;20439;-56
2021/09/09 11:24:16;;;;;;;13.77;8.73;;;21.40;78.00;;;;;;4985298;28;20518;-58
2021/09/09 11:26:44;;;;;;;12.20;8.70;;;21.50;76.80;;;;;;4985885;28;20462;-56
2021/09/09 11:29:10;;;;;;;12.23;8.00;;;21.60;75.00;;;;;;4977143;28;20548;-57
2021/09/09 11:31:45;;;;;;;11.20;7.97;;;21.70;75.80;;;;;;4983736;28;20531;-56
2021/09/09 11:34:11;;;;;;;13.30;8.20;;;22.10;75.00;;;;;;4986053;28;20243;-55
2021/09/09 11:36:42;;;;;;;9.87;7.43;;;22.50;71.60;;;;;;4986646;28;20967;-55
2021/09/09 11:39:19;;;;;;;12.90;7.43;;;22.90;70.00;;;;;;4982914;28;20726;-56
2021/09/09 11:41:45;;;;;;;11.17;7.90;;;23.00;68.10;;;;;;4990274;28;20929;-58
2021/09/09 11:44:23;;;;;;;9.80;7.67;;;23.10;67.80;;;;;;4976789;28;20456;-56
2021/09/09 11:46:51;;;;;;;9.20;7.73;;;23.00;66.10;;;;;;4983059;28;20455;-54
2021/09/09 11:49:22;;;;;;;11.97;8.13;;;22.90;65.30;;;;;;4979430;28;20445;-57
2021/09/09 11:51:50;;;;;;;10.87;8.20;;;22.70;66.20;;;;;;4980329;28;20523;-57
2021/09/09 11:54:24;;;;;;;12.00;8.13;;;22.60;66.80;;;;;;4982540;28;20463;-58
2021/09/09 11:56:51;;;;;;;9.37;7.40;;;22.50;66.80;;;;;;4978091;28;20440;-56
2021/09/09 11:59:19;;;;;;;11.10;8.10;;;22.30;68.10;;;;;;4979426;28;20495;-56
2021/09/09 12:01:52;;;;;;;16.07;8.70;;;22.20;68.50;;;;;;4982487;28;21159;-56
2021/09/09 12:04:20;;;;;;;9.60;7.60;;;22.20;69.10;;;;;;4984950;28;20527;-56
2021/09/09 12:06:47;;;;;;;14.63;7.80;;;22.10;68.20;;;;;;4982182;28;21064;-54
2021/09/09 12:09:26;;;;;;;14.20;8.10;;;22.10;69.10;;;;;;4983541;28;20460;-56
2021/09/09 12:12:00;;;;;;;13.53;8.10;;;22.00;69.60;;;;;;4983046;28;20448;-56
2021/09/09 12:14:26;;;;;;;10.73;8.27;;;22.00;69.70;;;;;;4981250;28;20458;-57
2021/09/09 12:17:08;;;;;;;11.67;8.27;;;21.90;70.20;;;;;;4994807;28;20440;-55
2021/09/09 12:19:59;;;;;;;10.33;7.93;;;21.90;70.90;;;;;;4977765;28;20244;-57
2021/09/09 12:22:43;;;;;;;14.43;9.17;;;21.80;71.50;;;;;;4985233;28;20444;-58
2021/09/09 12:25:23;;;;;;;13.13;8.93;;;21.70;72.00;;;;;;4983663;28;20436;-55
2021/09/09 12:27:55;;;;;;;14.37;9.93;;;21.70;72.50;;;;;;4984583;28;20837;-58
2021/09/09 12:30:25;;;;;;;13.60;8.87;;;21.60;74.60;;;;;;4981474;28;20574;-55
2021/09/09 12:32:51;;;;;;;13.57;8.73;;;21.60;75.20;;;;;;4985579;28;20436;-54
2021/09/09 12:35:19;;;;;;;11.80;9.33;;;21.50;75.80;;;;;;4983997;28;20806;-53
2021/09/09 12:37:57;;;;;;;14.70;9.73;;;21.50;76.80;;;;;;4989727;28;20182;-54